Weather at Long Rungan

Public forecast

Using degrees Celsius for public forecast. Weather courtesy of forecast.io.

Closest aviation weather report (METAR) to Long Rungan

Closest report is Brunei International Airport, 97.5 nm (180.6 km) NW. Retrieved 2022/06/30 10:30 UTC (11 minutes ago):

WBSB 301030Z 25005KT 9999 FEW016 SCT140 BKN280 30/27 Q1006 NOSIG

Closest aviation forecast (TAF) to Long Rungan

Closest forecast is Brunei International Airport, 97.5 nm (180.6 km) NW. Retrieved 2022/06/30 06:15 UTC (4 hours ago):

TAF WBSB 300500Z 3006/0112 23012KT 9999 FEW016 TEMPO 3013/3017 22015G20KT 5000 SHRA